sensor_id;sensor_type;location;lat;lon;timestamp;pressure;altitude;pressure_sealevel;temperature;humidity
22333;BME280;11334;36.986;-121.936;2024-03-06T00:01:48;101181.03;;;17.92;82.07
22333;BME280;11334;36.986;-121.936;2024-03-06T00:04:15;101173.69;;;18.01;81.64
22333;BME280;11334;36.986;-121.936;2024-03-06T00:06:41;101177.19;;;18.01;81.12
22333;BME280;11334;36.986;-121.936;2024-03-06T00:09:07;101167.78;;;18.05;81.19
22333;BME280;11334;36.986;-121.936;2024-03-06T00:11:34;101169.88;;;18.09;81.03
22333;BME280;11334;36.986;-121.936;2024-03-06T00:14:03;101170.31;;;18.13;80.38
22333;BME280;11334;36.986;-121.936;2024-03-06T00:16:32;101165.72;;;18.07;80.46
22333;BME280;11334;36.986;-121.936;2024-03-06T00:18:59;101162.59;;;18.03;80.19
22333;BME280;11334;36.986;-121.936;2024-03-06T00:21:28;101157.97;;;17.98;81.09
22333;BME280;11334;36.986;-121.936;2024-03-06T00:23:55;101164.75;;;17.94;82.32
22333;BME280;11334;36.986;-121.936;2024-03-06T00:26:22;101155.84;;;17.87;82.46
22333;BME280;11334;36.986;-121.936;2024-03-06T00:28:48;101155.19;;;17.85;83.20
22333;BME280;11334;36.986;-121.936;2024-03-06T00:31:14;101152.13;;;17.88;83.14
22333;BME280;11334;36.986;-121.936;2024-03-06T00:33:41;101148.78;;;17.86;83.13
22333;BME280;11334;36.986;-121.936;2024-03-06T00:36:08;101137.00;;;17.80;83.94
22333;BME280;11334;36.986;-121.936;2024-03-06T00:38:34;101146.41;;;17.70;83.88
22333;BME280;11334;36.986;-121.936;2024-03-06T00:41:00;101138.09;;;17.65;82.94
22333;BME280;11334;36.986;-121.936;2024-03-06T00:43:27;101140.56;;;17.67;83.79
22333;BME280;11334;36.986;-121.936;2024-03-06T00:45:53;101133.38;;;17.67;82.17
22333;BME280;11334;36.986;-121.936;2024-03-06T00:48:19;101130.69;;;17.67;81.88
22333;BME280;11334;36.986;-121.936;2024-03-06T00:50:48;101138.66;;;17.61;83.31
22333;BME280;11334;36.986;-121.936;2024-03-06T00:53:14;101130.38;;;17.56;83.21
22333;BME280;11334;36.986;-121.936;2024-03-06T00:55:40;101125.66;;;17.58;83.67
22333;BME280;11334;36.986;-121.936;2024-03-06T00:58:07;101125.00;;;17.56;84.16
22333;BME280;11334;36.986;-121.936;2024-03-06T01:00:34;101124.59;;;17.52;85.23
22333;BME280;11334;36.986;-121.936;2024-03-06T01:03:00;101123.94;;;17.50;85.62
22333;BME280;11334;36.986;-121.936;2024-03-06T01:05:27;101127.00;;;17.47;85.26
22333;BME280;11334;36.986;-121.936;2024-03-06T01:07:53;101127.13;;;17.40;85.92
22333;BME280;11334;36.986;-121.936;2024-03-06T01:10:20;101141.91;;;17.36;86.34
22333;BME280;11334;36.986;-121.936;2024-03-06T01:12:46;101133.81;;;17.29;87.17
22333;BME280;11334;36.986;-121.936;2024-03-06T01:15:12;101130.94;;;17.31;88.08
22333;BME280;11334;36.986;-121.936;2024-03-06T01:17:39;101132.81;;;17.30;88.60
22333;BME280;11334;36.986;-121.936;2024-03-06T01:20:05;101130.50;;;17.27;89.09
22333;BME280;11334;36.986;-121.936;2024-03-06T01:22:33;101126.09;;;17.20;89.42
22333;BME280;11334;36.986;-121.936;2024-03-06T01:25:00;101134.13;;;17.20;90.13
22333;BME280;11334;36.986;-121.936;2024-03-06T01:27:27;101132.94;;;17.08;90.77
22333;BME280;11334;36.986;-121.936;2024-03-06T01:29:53;101126.19;;;17.12;91.17
22333;BME280;11334;36.986;-121.936;2024-03-06T01:32:19;101120.84;;;17.12;91.50
22333;BME280;11334;36.986;-121.936;2024-03-06T01:34:46;101117.25;;;17.05;91.72
22333;BME280;11334;36.986;-121.936;2024-03-06T01:37:12;101127.09;;;17.05;92.10
22333;BME280;11334;36.986;-121.936;2024-03-06T01:39:38;101114.47;;;16.99;92.45
22333;BME280;11334;36.986;-121.936;2024-03-06T01:42:04;101114.78;;;16.89;92.86
22333;BME280;11334;36.986;-121.936;2024-03-06T01:44:30;101114.13;;;16.87;92.92
22333;BME280;11334;36.986;-121.936;2024-03-06T01:46:57;101116.75;;;16.81;93.53
22333;BME280;11334;36.986;-121.936;2024-03-06T01:49:23;101109.69;;;16.80;92.93
22333;BME280;11334;36.986;-121.936;2024-03-06T01:51:52;101113.59;;;16.77;93.02
22333;BME280;11334;36.986;-121.936;2024-03-06T01:54:19;101116.19;;;16.71;93.68
22333;BME280;11334;36.986;-121.936;2024-03-06T01:56:47;101113.97;;;16.75;93.92
22333;BME280;11334;36.986;-121.936;2024-03-06T01:59:19;101123.84;;;16.74;93.83
22333;BME280;11334;36.986;-121.936;2024-03-06T02:01:46;101129.97;;;16.68;94.10
22333;BME280;11334;36.986;-121.936;2024-03-06T02:04:13;101128.28;;;16.67;93.85
22333;BME280;11334;36.986;-121.936;2024-03-06T02:06:40;101134.44;;;16.68;94.36
22333;BME280;11334;36.986;-121.936;2024-03-06T02:09:06;101138.91;;;16.61;93.77
22333;BME280;11334;36.986;-121.936;2024-03-06T02:11:33;101122.94;;;16.53;94.17
22333;BME280;11334;36.986;-121.936;2024-03-06T02:13:59;101134.09;;;16.56;94.18
22333;BME280;11334;36.986;-121.936;2024-03-06T02:16:26;101140.28;;;16.57;93.70
22333;BME280;11334;36.986;-121.936;2024-03-06T02:18:56;101130.50;;;16.49;94.44
22333;BME280;11334;36.986;-121.936;2024-03-06T02:21:25;101126.81;;;16.50;94.79
22333;BME280;11334;36.986;-121.936;2024-03-06T02:23:52;101122.75;;;16.54;93.52
22333;BME280;11334;36.986;-121.936;2024-03-06T02:26:18;101125.91;;;16.44;94.33
22333;BME280;11334;36.986;-121.936;2024-03-06T02:28:52;101120.47;;;16.37;94.80
22333;BME280;11334;36.986;-121.936;2024-03-06T02:31:20;101120.28;;;16.39;93.92
22333;BME280;11334;36.986;-121.936;2024-03-06T02:33:49;101114.19;;;16.30;95.14
22333;BME280;11334;36.986;-121.936;2024-03-06T02:36:16;101120.94;;;16.26;95.86
22333;BME280;11334;36.986;-121.936;2024-03-06T02:38:44;101118.41;;;16.25;96.13
22333;BME280;11334;36.986;-121.936;2024-03-06T02:41:10;101123.31;;;16.21;96.74
22333;BME280;11334;36.986;-121.936;2024-03-06T02:43:37;101119.16;;;16.19;96.75
22333;BME280;11334;36.986;-121.936;2024-03-06T02:46:03;101115.00;;;16.16;97.14
22333;BME280;11334;36.986;-121.936;2024-03-06T02:48:30;101115.38;;;16.13;97.31
22333;BME280;11334;36.986;-121.936;2024-03-06T02:50:57;101126.91;;;16.14;97.40
22333;BME280;11334;36.986;-121.936;2024-03-06T02:53:23;101120.88;;;16.12;97.47
22333;BME280;11334;36.986;-121.936;2024-03-06T02:55:51;101119.56;;;16.08;98.12
22333;BME280;11334;36.986;-121.936;2024-03-06T02:58:17;101114.06;;;16.10;97.86
22333;BME280;11334;36.986;-121.936;2024-03-06T03:00:43;101113.09;;;16.03;98.27
22333;BME280;11334;36.986;-121.936;2024-03-06T03:03:10;101109.16;;;15.99;98.37
22333;BME280;11334;36.986;-121.936;2024-03-06T03:05:40;101112.16;;;15.96;99.11
22333;BME280;11334;36.986;-121.936;2024-03-06T03:08:06;101104.16;;;15.96;98.84
22333;BME280;11334;36.986;-121.936;2024-03-06T03:10:34;101106.53;;;15.91;99.24
22333;BME280;11334;36.986;-121.936;2024-03-06T03:13:00;101110.69;;;15.93;100.00
22333;BME280;11334;36.986;-121.936;2024-03-06T03:15:27;101105.72;;;15.90;100.00
22333;BME280;11334;36.986;-121.936;2024-03-06T03:17:53;101098.72;;;15.89;100.00
22333;BME280;11334;36.986;-121.936;2024-03-06T03:20:19;101105.72;;;15.90;100.00
22333;BME280;11334;36.986;-121.936;2024-03-06T03:22:46;101115.41;;;15.91;100.00
22333;BME280;11334;36.986;-121.936;2024-03-06T03:25:13;101105.19;;;15.95;99.99
22333;BME280;11334;36.986;-121.936;2024-03-06T03:27:40;101109.50;;;15.96;99.64
22333;BME280;11334;36.986;-121.936;2024-03-06T03:30:12;101108.22;;;15.92;99.92
22333;BME280;11334;36.986;-121.936;2024-03-06T03:32:39;101102.59;;;15.87;100.00
22333;BME280;11334;36.986;-121.936;2024-03-06T03:35:06;101101.56;;;15.88;100.00
22333;BME280;11334;36.986;-121.936;2024-03-06T03:37:32;101092.06;;;15.85;100.00
22333;BME280;11334;36.986;-121.936;2024-03-06T03:39:59;101098.44;;;15.84;100.00
22333;BME280;11334;36.986;-121.936;2024-03-06T03:42:25;101083.97;;;15.79;100.00
22333;BME280;11334;36.986;-121.936;2024-03-06T03:44:52;101089.19;;;15.73;100.00
22333;BME280;11334;36.986;-121.936;2024-03-06T03:47:18;101092.22;;;15.70;100.00
22333;BME280;11334;36.986;-121.936;2024-03-06T03:49:44;101089.34;;;15.71;100.00
22333;BME280;11334;36.986;-121.936;2024-03-06T03:52:10;101082.91;;;15.66;100.00
22333;BME280;11334;36.986;-121.936;2024-03-06T03:54:37;101080.59;;;15.63;100.00
22333;BME280;11334;36.986;-121.936;2024-03-06T03:57:04;101078.75;;;15.63;100.00
22333;BME280;11334;36.986;-121.936;2024-03-06T03:59:32;101076.75;;;15.65;100.00
22333;BME280;11334;36.986;-121.936;2024-03-06T04:01:58;101076.44;;;15.60;100.00
22333;BME280;11334;36.986;-121.936;2024-03-06T04:04:24;101069.91;;;15.63;100.00
22333;BME280;11334;36.986;-121.936;2024-03-06T04:06:51;101076.75;;;15.65;100.00
22333;BME280;11334;36.986;-121.936;2024-03-06T04:09:17;101070.94;;;15.62;100.00
22333;BME280;11334;36.986;-121.936;2024-03-06T04:11:44;101082.25;;;15.64;100.00
22333;BME280;11334;36.986;-121.936;2024-03-06T04:14:10;101075.44;;;15.61;100.00
22333;BME280;11334;36.986;-121.936;2024-03-06T04:16:36;101070.28;;;15.60;100.00
22333;BME280;11334;36.986;-121.936;2024-03-06T04:19:03;101081.78;;;15.60;100.00
22333;BME280;11334;36.986;-121.936;2024-03-06T04:21:30;101079.50;;;15.57;100.00
22333;BME280;11334;36.986;-121.936;2024-03-06T04:23:56;101077.63;;;15.58;100.00
22333;BME280;11334;36.986;-121.936;2024-03-06T04:26:24;101080.97;;;15.60;100.00
22333;BME280;11334;36.986;-121.936;2024-03-06T04:28:50;101080.59;;;15.63;100.00
22333;BME280;11334;36.986;-121.936;2024-03-06T04:31:16;101085.81;;;15.56;100.00
22333;BME280;11334;36.986;-121.936;2024-03-06T04:33:42;101092.84;;;15.57;100.00
22333;BME280;11334;36.986;-121.936;2024-03-06T04:36:10;101092.34;;;15.54;100.00
22333;BME280;11334;36.986;-121.936;2024-03-06T04:38:36;101095.22;;;15.52;100.00
22333;BME280;11334;36.986;-121.936;2024-03-06T04:41:02;101095.88;;;15.54;100.00
22333;BME280;11334;36.986;-121.936;2024-03-06T04:43:31;101094.84;;;15.55;100.00
22333;BME280;11334;36.986;-121.936;2024-03-06T04:45:57;101091.81;;;15.58;100.00
22333;BME280;11334;36.986;-121.936;2024-03-06T04:48:23;101098.84;;;15.59;100.00
22333;BME280;11334;36.986;-121.936;2024-03-06T04:50:49;101104.81;;;15.61;100.00
22333;BME280;11334;36.986;-121.936;2024-03-06T04:53:15;101091.81;;;15.58;100.00
22333;BME280;11334;36.986;-121.936;2024-03-06T04:55:42;101094.50;;;15.58;100.00
22333;BME280;11334;36.986;-121.936;2024-03-06T04:58:08;101097.38;;;15.57;100.00
22333;BME280;11334;36.986;-121.936;2024-03-06T05:00:35;101094.69;;;15.57;100.00
22333;BME280;11334;36.986;-121.936;2024-03-06T05:03:02;101096.56;;;15.48;100.00
22333;BME280;11334;36.986;-121.936;2024-03-06T05:05:28;101091.06;;;15.50;100.00
22333;BME280;11334;36.986;-121.936;2024-03-06T05:07:55;101087.56;;;15.49;100.00
22333;BME280;11334;36.986;-121.936;2024-03-06T05:10:21;101084.53;;;15.52;100.00
22333;BME280;11334;36.986;-121.936;2024-03-06T05:12:48;101091.72;;;15.52;100.00
22333;BME280;11334;36.986;-121.936;2024-03-06T05:15:14;101095.22;;;15.52;100.00
22333;BME280;11334;36.986;-121.936;2024-03-06T05:17:40;101090.56;;;15.47;100.00
22333;BME280;11334;36.986;-121.936;2024-03-06T05:20:07;101095.63;;;15.42;100.00
22333;BME280;11334;36.986;-121.936;2024-03-06T05:22:33;101089.28;;;15.43;100.00
22333;BME280;11334;36.986;-121.936;2024-03-06T05:25:00;101089.94;;;15.45;100.00
22333;BME280;11334;36.986;-121.936;2024-03-06T05:27:26;101075.41;;;15.47;100.00
22333;BME280;11334;36.986;-121.936;2024-03-06T05:29:52;101077.78;;;15.42;100.00
22333;BME280;11334;36.986;-121.936;2024-03-06T05:32:18;101073.72;;;15.46;100.00
22333;BME280;11334;36.986;-121.936;2024-03-06T05:34:45;101078.25;;;15.46;100.00
22333;BME280;11334;36.986;-121.936;2024-03-06T05:37:11;101073.06;;;15.44;100.00
22333;BME280;11334;36.986;-121.936;2024-03-06T05:39:38;101066.25;;;15.42;100.00
22333;BME280;11334;36.986;-121.936;2024-03-06T05:42:04;101062.22;;;15.46;100.00
22333;BME280;11334;36.986;-121.936;2024-03-06T05:44:31;101062.88;;;15.48;100.00
22333;BME280;11334;36.986;-121.936;2024-03-06T05:47:01;101060.09;;;15.41;100.00
22333;BME280;11334;36.986;-121.936;2024-03-06T05:49:29;101060.91;;;15.42;100.00
22333;BME280;11334;36.986;-121.936;2024-03-06T05:51:55;101057.63;;;15.40;100.00
22333;BME280;11334;36.986;-121.936;2024-03-06T05:54:22;101051.63;;;15.38;100.00
22333;BME280;11334;36.986;-121.936;2024-03-06T05:56:49;101047.94;;;15.39;100.00
22333;BME280;11334;36.986;-121.936;2024-03-06T05:59:19;101052.16;;;15.33;100.00
22333;BME280;11334;36.986;-121.936;2024-03-06T06:01:46;101055.47;;;15.35;100.00
22333;BME280;11334;36.986;-121.936;2024-03-06T06:04:13;101054.66;;;15.35;100.00
22333;BME280;11334;36.986;-121.936;2024-03-06T06:06:40;101048.16;;;15.29;100.00
22333;BME280;11334;36.986;-121.936;2024-03-06T06:09:06;101049.84;;;15.30;100.00
22333;BME280;11334;36.986;-121.936;2024-03-06T06:11:33;101057.03;;;15.30;100.00
22333;BME280;11334;36.986;-121.936;2024-03-06T06:14:00;101054.69;;;15.27;100.00
22333;BME280;11334;36.986;-121.936;2024-03-06T06:16:26;101047.88;;;15.24;100.00
22333;BME280;11334;36.986;-121.936;2024-03-06T06:18:52;101047.19;;;15.30;100.00
22333;BME280;11334;36.986;-121.936;2024-03-06T06:21:18;101045.31;;;15.31;100.00
22333;BME280;11334;36.986;-121.936;2024-03-06T06:23:45;101044.38;;;15.24;100.00
22333;BME280;11334;36.986;-121.936;2024-03-06T06:26:11;101045.19;;;15.24;100.00
22333;BME280;11334;36.986;-121.936;2024-03-06T06:28:40;101049.06;;;15.22;100.00
22333;BME280;11334;36.986;-121.936;2024-03-06T06:31:06;101053.56;;;15.21;100.00
22333;BME280;11334;36.986;-121.936;2024-03-06T06:33:33;101044.22;;;15.25;100.00
22333;BME280;11334;36.986;-121.936;2024-03-06T06:35:59;101051.03;;;15.28;100.00
22333;BME280;11334;36.986;-121.936;2024-03-06T06:38:25;101045.03;;;15.26;100.00
22333;BME280;11334;36.986;-121.936;2024-03-06T06:40:51;101042.72;;;15.23;100.00
22333;BME280;11334;36.986;-121.936;2024-03-06T06:43:18;101042.19;;;15.27;100.00
22333;BME280;11334;36.986;-121.936;2024-03-06T06:45:44;101040.00;;;15.31;100.00
22333;BME280;11334;36.986;-121.936;2024-03-06T06:48:10;101037.69;;;15.28;100.00
22333;BME280;11334;36.986;-121.936;2024-03-06T06:50:37;101037.31;;;15.31;100.00
22333;BME280;11334;36.986;-121.936;2024-03-06T06:53:04;101039.88;;;15.24;100.00
22333;BME280;11334;36.986;-121.936;2024-03-06T06:55:30;101038.50;;;15.28;100.00
22333;BME280;11334;36.986;-121.936;2024-03-06T06:57:57;101030.38;;;15.22;100.00
22333;BME280;11334;36.986;-121.936;2024-03-06T07:00:23;101034.81;;;15.29;100.00
22333;BME280;11334;36.986;-121.936;2024-03-06T07:02:50;101034.19;;;15.27;100.00
22333;BME280;11334;36.986;-121.936;2024-03-06T07:05:17;101035.00;;;15.28;100.00
22333;BME280;11334;36.986;-121.936;2024-03-06T07:07:43;101034.19;;;15.27;100.00
22333;BME280;11334;36.986;-121.936;2024-03-06T07:10:10;101030.66;;;15.27;100.00
22333;BME280;11334;36.986;-121.936;2024-03-06T07:12:36;101026.50;;;15.24;100.00
22333;BME280;11334;36.986;-121.936;2024-03-06T07:15:02;101034.81;;;15.29;100.00
22333;BME280;11334;36.986;-121.936;2024-03-06T07:17:29;101032.44;;;15.34;100.00
22333;BME280;11334;36.986;-121.936;2024-03-06T07:19:55;101025.09;;;15.36;100.00
22333;BME280;11334;36.986;-121.936;2024-03-06T07:22:22;101030.06;;;15.39;100.00
22333;BME280;11334;36.986;-121.936;2024-03-06T07:24:49;101022.25;;;15.38;100.00
22333;BME280;11334;36.986;-121.936;2024-03-06T07:27:15;101020.53;;;15.45;100.00
22333;BME280;11334;36.986;-121.936;2024-03-06T07:29:41;101025.22;;;15.43;100.00
22333;BME280;11334;36.986;-121.936;2024-03-06T07:32:07;101018.97;;;15.50;100.00
22333;BME280;11334;36.986;-121.936;2024-03-06T07:34:34;101014.81;;;15.48;100.00
22333;BME280;11334;36.986;-121.936;2024-03-06T07:37:00;101014.53;;;15.43;100.00
22333;BME280;11334;36.986;-121.936;2024-03-06T07:39:27;101013.88;;;15.41;100.00
22333;BME280;11334;36.986;-121.936;2024-03-06T07:41:53;101019.88;;;15.43;100.00
22333;BME280;11334;36.986;-121.936;2024-03-06T07:44:20;101013.88;;;15.41;100.00
22333;BME280;11334;36.986;-121.936;2024-03-06T07:46:46;101023.19;;;15.45;100.00
22333;BME280;11334;36.986;-121.936;2024-03-06T07:49:13;101013.34;;;15.45;100.00
22333;BME280;11334;36.986;-121.936;2024-03-06T07:51:39;101007.63;;;15.48;100.00
22333;BME280;11334;36.986;-121.936;2024-03-06T07:54:06;101015.63;;;15.48;100.00
22333;BME280;11334;36.986;-121.936;2024-03-06T07:56:33;101007.47;;;15.49;100.00
22333;BME280;11334;36.986;-121.936;2024-03-06T07:59:00;101001.09;;;15.50;100.00
22333;BME280;11334;36.986;-121.936;2024-03-06T08:01:27;101010.75;;;15.51;100.00
22333;BME280;11334;36.986;-121.936;2024-03-06T08:03:57;101009.56;;;15.40;100.00
22333;BME280;11334;36.986;-121.936;2024-03-06T08:06:24;101009.19;;;15.43;100.00
22333;BME280;11334;36.986;-121.936;2024-03-06T08:08:50;101006.16;;;15.46;100.00
22333;BME280;11334;36.986;-121.936;2024-03-06T08:11:17;101010.53;;;15.39;100.00
22333;BME280;11334;36.986;-121.936;2024-03-06T08:13:44;100997.03;;;15.40;100.00
22333;BME280;11334;36.986;-121.936;2024-03-06T08:16:10;101017.28;;;15.35;100.00
22333;BME280;11334;36.986;-121.936;2024-03-06T08:18:36;101008.59;;;15.33;100.00
22333;BME280;11334;36.986;-121.936;2024-03-06T08:21:03;101006.09;;;15.31;100.00
22333;BME280;11334;36.986;-121.936;2024-03-06T08:23:31;101007.94;;;15.31;100.00
22333;BME280;11334;36.986;-121.936;2024-03-06T08:25:57;101006.22;;;15.38;100.00
22333;BME280;11334;36.986;-121.936;2024-03-06T08:28:25;101009.25;;;15.35;100.00
22333;BME280;11334;36.986;-121.936;2024-03-06T08:30:52;101012.91;;;15.34;100.00
22333;BME280;11334;36.986;-121.936;2024-03-06T08:33:18;101008.41;;;15.34;100.00
22333;BME280;11334;36.986;-121.936;2024-03-06T08:35:46;101011.72;;;15.36;100.00
22333;BME280;11334;36.986;-121.936;2024-03-06T08:38:13;101002.91;;;15.36;100.00
22333;BME280;11334;36.986;-121.936;2024-03-06T08:40:39;100996.19;;;15.40;100.00
22333;BME280;11334;36.986;-121.936;2024-03-06T08:43:07;100999.97;;;15.45;100.00
22333;BME280;11334;36.986;-121.936;2024-03-06T08:45:34;101003.09;;;15.48;100.00
22333;BME280;11334;36.986;-121.936;2024-03-06T08:48:01;100997.47;;;15.44;100.00
22333;BME280;11334;36.986;-121.936;2024-03-06T08:50:27;101000.44;;;15.48;100.00
22333;BME280;11334;36.986;-121.936;2024-03-06T08:52:53;100998.13;;;15.46;100.00
22333;BME280;11334;36.986;-121.936;2024-03-06T08:55:19;100992.13;;;15.44;100.00
22333;BME280;11334;36.986;-121.936;2024-03-06T08:57:45;100985.31;;;15.41;100.00
22333;BME280;11334;36.986;-121.936;2024-03-06T09:00:12;100990.66;;;15.41;100.00
22333;BME280;11334;36.986;-121.936;2024-03-06T09:02:40;100987.34;;;15.39;100.00
22333;BME280;11334;36.986;-121.936;2024-03-06T09:05:07;100980.47;;;15.45;100.00
22333;BME280;11334;36.986;-121.936;2024-03-06T09:07:36;100985.59;;;15.46;100.00
22333;BME280;11334;36.986;-121.936;2024-03-06T09:10:10;100977.13;;;15.43;100.00
22333;BME280;11334;36.986;-121.936;2024-03-06T09:12:37;100975.94;;;15.45;100.00
22333;BME280;11334;36.986;-121.936;2024-03-06T09:15:04;100981.09;;;15.47;100.00
22333;BME280;11334;36.986;-121.936;2024-03-06T09:17:30;100970.59;;;15.45;100.00
22333;BME280;11334;36.986;-121.936;2024-03-06T09:19:56;100970.13;;;15.42;100.00
22333;BME280;11334;36.986;-121.936;2024-03-06T09:22:23;100975.66;;;15.40;100.00
22333;BME280;11334;36.986;-121.936;2024-03-06T09:24:49;100975.47;;;15.42;100.00
22333;BME280;11334;36.986;-121.936;2024-03-06T09:27:16;100968.59;;;15.47;100.00
22333;BME280;11334;36.986;-121.936;2024-03-06T09:29:43;100967.72;;;15.47;100.00
22333;BME280;11334;36.986;-121.936;2024-03-06T09:32:10;100957.78;;;15.41;100.00
22333;BME280;11334;36.986;-121.936;2024-03-06T09:34:39;100954.47;;;15.39;100.00
22333;BME280;11334;36.986;-121.936;2024-03-06T09:37:05;100942.59;;;15.41;100.00
22333;BME280;11334;36.986;-121.936;2024-03-06T09:39:31;100943.78;;;15.39;100.00
22333;BME280;11334;36.986;-121.936;2024-03-06T09:41:59;100942.13;;;15.38;100.00
22333;BME280;11334;36.986;-121.936;2024-03-06T09:44:27;100941.13;;;15.39;100.00
22333;BME280;11334;36.986;-121.936;2024-03-06T09:46:54;100931.84;;;15.35;100.00
22333;BME280;11334;36.986;-121.936;2024-03-06T09:49:25;100927.13;;;15.37;100.00
22333;BME280;11334;36.986;-121.936;2024-03-06T09:51:53;100931.47;;;15.38;100.00
22333;BME280;11334;36.986;-121.936;2024-03-06T09:54:22;100915.97;;;15.33;100.00
22333;BME280;11334;36.986;-121.936;2024-03-06T09:56:49;100911.66;;;15.32;100.00
22333;BME280;11334;36.986;-121.936;2024-03-06T09:59:16;100916.34;;;15.30;100.00
22333;BME280;11334;36.986;-121.936;2024-03-06T10:01:54;100914.13;;;15.34;100.00
22333;BME280;11334;36.986;-121.936;2024-03-06T10:04:25;100906.50;;;15.31;100.00
22333;BME280;11334;36.986;-121.936;2024-03-06T10:06:55;100908.13;;;15.32;100.00
22333;BME280;11334;36.986;-121.936;2024-03-06T10:09:21;100902.81;;;15.32;100.00
22333;BME280;11334;36.986;-121.936;2024-03-06T10:11:47;100900.13;;;15.32;100.00
22333;BME280;11334;36.986;-121.936;2024-03-06T10:14:14;100898.50;;;15.31;100.00
22333;BME280;11334;36.986;-121.936;2024-03-06T10:16:54;100883.50;;;15.30;100.00
22333;BME280;11334;36.986;-121.936;2024-03-06T10:19:23;100883.22;;;15.25;100.00
22333;BME280;11334;36.986;-121.936;2024-03-06T10:21:50;100870.84;;;15.24;100.00
22333;BME280;11334;36.986;-121.936;2024-03-06T10:26:46;100865.72;;;15.22;100.00
22333;BME280;11334;36.986;-121.936;2024-03-06T10:29:18;100864.88;;;15.22;100.00
22333;BME280;11334;36.986;-121.936;2024-03-06T10:31:54;100870.84;;;15.24;100.00
22333;BME280;11334;36.986;-121.936;2024-03-06T10:34:22;100867.53;;;15.22;100.00
22333;BME280;11334;36.986;-121.936;2024-03-06T10:36:55;100871.97;;;15.15;100.00
22333;BME280;11334;36.986;-121.936;2024-03-06T10:39:22;100862.56;;;15.19;100.00
22333;BME280;11334;36.986;-121.936;2024-03-06T10:41:56;100860.00;;;15.11;100.00
22333;BME280;11334;36.986;-121.936;2024-03-06T10:44:25;100864.13;;;15.14;100.00
22333;BME280;11334;36.986;-121.936;2024-03-06T10:47:03;100848.31;;;15.12;100.00
22333;BME280;11334;36.986;-121.936;2024-03-06T10:49:30;100844.25;;;15.16;100.00
22333;BME280;11334;36.986;-121.936;2024-03-06T10:51:59;100851.88;;;15.05;100.00
22333;BME280;11334;36.986;-121.936;2024-03-06T10:54:29;100844.56;;;14.99;100.00
22333;BME280;11334;36.986;-121.936;2024-03-06T10:56:56;100849.75;;;15.00;100.00
22333;BME280;11334;36.986;-121.936;2024-03-06T10:59:27;100835.09;;;14.96;100.00
22333;BME280;11334;36.986;-121.936;2024-03-06T11:01:59;100829.38;;;14.99;100.00
22333;BME280;11334;36.986;-121.936;2024-03-06T11:04:30;100822.94;;;14.94;100.00
22333;BME280;11334;36.986;-121.936;2024-03-06T11:07:03;100826.09;;;14.97;100.00
22333;BME280;11334;36.986;-121.936;2024-03-06T11:09:37;100822.41;;;14.98;100.00
22333;BME280;11334;36.986;-121.936;2024-03-06T11:12:04;100813.47;;;14.91;100.00
22333;BME280;11334;36.986;-121.936;2024-03-06T11:14:38;100815.47;;;14.89;100.00
22333;BME280;11334;36.986;-121.936;2024-03-06T11:17:07;100811.16;;;14.88;100.00
22333;BME280;11334;36.986;-121.936;2024-03-06T11:28:47;100802.53;;;14.86;100.00
22333;BME280;11334;36.986;-121.936;2024-03-06T11:31:16;100814.91;;;14.80;100.00
22333;BME280;11334;36.986;-121.936;2024-03-06T11:33:47;100802.97;;;14.76;100.00
22333;BME280;11334;36.986;-121.936;2024-03-06T11:36:23;100811.97;;;14.75;100.00
22333;BME280;11334;36.986;-121.936;2024-03-06T11:39:04;100809.59;;;14.80;100.00
22333;BME280;11334;36.986;-121.936;2024-03-06T11:41:52;100808.69;;;14.73;100.00
22333;BME280;11334;36.986;-121.936;2024-03-06T11:44:22;100803.06;;;14.68;100.00
22333;BME280;11334;36.986;-121.936;2024-03-06T11:46:57;100800.19;;;14.69;100.00
22333;BME280;11334;36.986;-121.936;2024-03-06T11:49:26;100799.75;;;14.66;100.00
22333;BME280;11334;36.986;-121.936;2024-03-06T11:52:08;100797.72;;;14.68;100.00
22333;BME280;11334;36.986;-121.936;2024-03-06T11:54:36;100795.22;;;14.66;100.00
22333;BME280;11334;36.986;-121.936;2024-03-06T11:57:03;100796.03;;;14.67;100.00
22333;BME280;11334;36.986;-121.936;2024-03-06T11:59:37;100791.25;;;14.62;100.00
22333;BME280;11334;36.986;-121.936;2024-03-06T12:02:06;100789.44;;;14.63;100.00
22333;BME280;11334;36.986;-121.936;2024-03-06T12:04:34;100788.78;;;14.61;100.00
22333;BME280;11334;36.986;-121.936;2024-03-06T12:07:03;100787.75;;;14.62;100.00
22333;BME280;11334;36.986;-121.936;2024-03-06T12:09:37;100777.47;;;14.59;100.00
22333;BME280;11334;36.986;-121.936;2024-03-06T12:12:03;100784.81;;;14.57;100.00
22333;BME280;11334;36.986;-121.936;2024-03-06T12:14:31;100789.78;;;14.60;100.00
22333;BME280;11334;36.986;-121.936;2024-03-06T12:17:01;100782.63;;;14.60;100.00
22333;BME280;11334;36.986;-121.936;2024-03-06T12:19:35;100793.75;;;14.64;100.00
22333;BME280;11334;36.986;-121.936;2024-03-06T12:22:03;100791.09;;;14.64;100.00
22333;BME280;11334;36.986;-121.936;2024-03-06T12:24:37;100794.50;;;14.58;100.00
22333;BME280;11334;36.986;-121.936;2024-03-06T12:27:05;100790.97;;;14.57;100.00